Time;durP1;ratioP1;P1;durP2;ratioP2;P2;SDS_P1;SDS_P2;PMS_P1;PMS_P2;Temp;Humidity;BMP_temperature;BMP_pressure;BME280_temperature;BME280_humidity;BME280_pressure;Samples;Min_cycle;Max_cycle;Signal;HPM_P1;HPM_P2
2021/06/30 00:03:59;;;;;;;10.70;9.08;;;;;;;20.17;82.70;98166.09;4133032;84;21020;-81
2021/06/30 00:10:04;;;;;;;13.25;9.03;;;;;;;20.15;82.66;98177.63;4138900;83;21068;-81
2021/06/30 00:16:06;;;;;;;9.95;8.95;;;;;;;20.17;83.09;98199.43;4081379;86;21072;-80
2021/06/30 00:22:07;;;;;;;11.15;9.40;;;;;;;20.05;82.87;98188.54;4158395;83;21087;-81
2021/06/30 00:28:09;;;;;;;11.68;8.70;;;;;;;19.93;83.41;98204.70;4086377;85;21064;-80
2021/06/30 00:34:11;;;;;;;24.92;11.68;;;;;;;19.96;83.78;98233.56;4142385;83;21099;-80
2021/06/30 00:40:13;;;;;;;20.20;10.98;;;;;;;19.92;84.12;98330.15;4094145;86;21060;-81
2021/06/30 00:46:14;;;;;;;17.15;10.15;;;;;;;20.05;84.75;98360.79;4129246;84;20992;-79
2021/06/30 00:52:16;;;;;;;16.37;9.75;;;;;;;20.13;84.88;98355.16;4085136;86;21444;-80
2021/06/30 00:58:17;;;;;;;15.90;6.62;;;;;;;20.20;84.69;98361.08;4130149;84;22059;-79
2021/06/30 01:04:19;;;;;;;14.95;5.67;;;;;;;20.25;84.50;98384.09;4097964;86;21143;-78
2021/06/30 01:10:20;;;;;;;11.25;4.55;;;;;;;20.17;84.21;98400.25;4150291;84;21095;-78
2021/06/30 01:16:21;;;;;;;17.50;4.42;;;;;;;19.98;84.10;98420.00;4086003;85;21075;-79
2021/06/30 01:22:24;;;;;;;15.03;3.22;;;;;;;19.83;84.56;98432.83;4135267;84;21066;-78
2021/06/30 01:28:26;;;;;;;6.37;3.02;;;;;;;19.55;84.37;98454.02;4073093;85;21411;-78
2021/06/30 01:34:27;;;;;;;11.15;3.10;;;;;;;19.34;84.53;98422.03;4088293;85;21072;-78
2021/06/30 01:40:30;;;;;;;10.70;3.37;;;;;;;19.19;84.71;98436.94;4183657;83;21058;-78
2021/06/30 01:46:31;;;;;;;7.35;1.92;;;;;;;19.07;84.71;98438.33;4096155;85;21428;-78
2021/06/30 01:52:33;;;;;;;4.90;1.50;;;;;;;18.96;84.28;98418.47;4140918;84;21064;-78
2021/06/30 01:58:34;;;;;;;1.45;0.93;;;;;;;18.79;84.36;98387.32;4072141;86;22470;-78
2021/06/30 02:04:35;;;;;;;6.05;1.27;;;;;;;18.70;84.37;98344.21;4148723;83;21167;-80
2021/06/30 02:10:40;;;;;;;6.12;1.62;;;;;;;18.67;85.44;98340.95;4093730;84;21412;-76
2021/06/30 02:16:41;;;;;;;4.78;1.65;;;;;;;18.35;84.66;98216.45;4069444;86;21627;-77
2021/06/30 02:22:44;;;;;;;5.10;1.10;;;;;;;18.10;85.69;98111.22;4179904;83;21071;-76
2021/06/30 02:28:45;;;;;;;9.48;3.17;;;;;;;17.95;87.64;98228.58;4099559;85;22336;-78
2021/06/30 02:34:47;;;;;;;3.22;1.37;;;;;;;17.92;90.54;98226.70;4148713;83;21460;-77
2021/06/30 02:40:48;;;;;;;5.10;1.52;;;;;;;17.86;89.12;98182.78;4089169;85;21060;-78
2021/06/30 02:46:50;;;;;;;4.22;1.70;;;;;;;17.93;89.87;98175.62;4162947;83;21140;-81
2021/06/30 02:52:52;;;;;;;3.05;1.45;;;;;;;17.88;89.81;98161.58;4225391;83;21080;-79
2021/06/30 02:58:53;;;;;;;5.70;2.00;;;;;;;17.86;89.18;98137.11;4218477;83;21091;-80
2021/06/30 03:04:54;;;;;;;5.10;2.20;;;;;;;17.79;88.79;98150.40;4229554;82;21033;-80
2021/06/30 03:10:55;;;;;;;8.88;1.90;;;;;;;17.78;88.39;98125.30;4179427;83;21077;-80
2021/06/30 03:16:57;;;;;;;3.58;1.62;;;;;;;17.77;88.32;98129.30;4170089;84;21134;-79
2021/06/30 03:22:58;;;;;;;4.75;1.75;;;;;;;17.79;89.12;98141.47;4186453;84;21084;-79
2021/06/30 03:29:01;;;;;;;6.17;1.57;;;;;;;17.80;88.45;98149.17;4188349;84;21104;-79
2021/06/30 03:35:06;;;;;;;3.08;1.52;;;;;;;17.83;88.90;98159.36;4185513;84;21076;-80
2021/06/30 03:41:07;;;;;;;3.60;1.85;;;;;;;17.92;88.58;98149.17;4186523;83;21148;-78
2021/06/30 03:47:12;;;;;;;4.10;1.92;;;;;;;17.94;88.53;98155.05;4178177;84;21497;-80
2021/06/30 03:53:13;;;;;;;9.03;1.92;;;;;;;17.95;88.83;98169.64;4176155;84;21128;-80
2021/06/30 03:59:15;;;;;;;5.55;1.87;;;;;;;18.12;88.89;98193.27;4189192;84;21075;-79
2021/06/30 04:05:17;;;;;;;3.75;1.52;;;;;;;18.15;88.67;98231.91;4183410;84;21092;-80
2021/06/30 04:11:18;;;;;;;10.32;2.00;;;;;;;18.09;88.82;98260.59;4202495;83;21069;-80
2021/06/30 04:17:20;;;;;;;7.45;1.92;;;;;;;18.22;89.16;98294.03;4187004;82;21093;-79
2021/06/30 04:23:21;;;;;;;7.90;2.05;;;;;;;18.38;89.00;98306.43;4177241;84;22341;-80
2021/06/30 04:29:22;;;;;;;6.85;2.08;;;;;;;18.50;89.19;98320.11;4177621;84;21087;-80
2021/06/30 04:35:23;;;;;;;5.37;2.00;;;;;;;18.73;89.09;98323.16;4169547;84;21081;-79
2021/06/30 04:41:25;;;;;;;9.05;3.20;;;;;;;18.79;88.82;98334.64;4174595;83;21029;-80
2021/06/30 04:47:29;;;;;;;7.53;2.20;;;;;;;18.83;88.92;98358.86;4104391;83;21098;-80
2021/06/30 04:53:31;;;;;;;6.25;2.00;;;;;;;18.87;89.13;98367.83;4071991;86;21686;-80
2021/06/30 04:59:33;;;;;;;5.85;2.27;;;;;;;19.08;88.89;98382.41;4067322;86;21071;-80
2021/06/30 05:05:34;;;;;;;8.03;1.98;;;;;;;19.25;88.86;98391.36;4072709;86;21124;-79
2021/06/30 05:11:36;;;;;;;4.25;2.00;;;;;;;19.35;88.74;98388.88;4133438;84;21078;-80
2021/06/30 05:17:37;;;;;;;14.20;2.35;;;;;;;19.44;88.66;98389.75;4137152;84;21380;-80
2021/06/30 05:23:38;;;;;;;7.67;2.12;;;;;;;19.54;88.56;98392.00;4137425;84;21081;-80
2021/06/30 05:29:39;;;;;;;8.63;4.03;;;;;;;19.52;88.60;98399.39;4141764;84;21075;-80
2021/06/30 05:35:41;;;;;;;5.80;3.00;;;;;;;19.48;88.56;98404.91;4153864;84;21205;-80
2021/06/30 05:41:44;;;;;;;7.65;3.62;;;;;;;19.42;88.61;98410.23;4144485;84;21101;-80
2021/06/30 05:47:47;;;;;;;7.60;2.90;;;;;;;19.56;88.79;98424.27;4138133;84;21699;-80
2021/06/30 05:53:48;;;;;;;6.62;2.10;;;;;;;19.72;88.59;98418.53;4138502;84;21114;-81
2021/06/30 05:59:50;;;;;;;5.67;2.45;;;;;;;19.81;88.09;98427.72;4138864;84;21523;-79
2021/06/30 06:05:51;;;;;;;5.70;2.80;;;;;;;19.97;87.89;98430.94;4136718;84;21070;-81
2021/06/30 06:11:52;;;;;;;9.20;2.40;;;;;;;20.11;87.79;98428.44;4078706;84;21099;-81
2021/06/30 06:17:53;;;;;;;9.20;2.52;;;;;;;20.29;86.90;98420.09;4073009;86;21654;-81
2021/06/30 06:23:55;;;;;;;6.08;2.45;;;;;;;20.39;86.25;98412.74;4079485;86;21065;-80
2021/06/30 06:29:56;;;;;;;5.22;2.40;;;;;;;20.39;86.12;98410.59;4074614;86;21099;-81
2021/06/30 06:35:57;;;;;;;6.35;2.62;;;;;;;20.45;85.72;98406.78;4076854;86;21950;-82
2021/06/30 06:41:59;;;;;;;5.47;2.30;;;;;;;20.43;85.29;98417.58;4071673;86;21105;-81
2021/06/30 06:48:00;;;;;;;5.40;2.20;;;;;;;20.48;85.05;98425.33;4081638;86;21083;-81
2021/06/30 06:54:02;;;;;;;5.70;2.50;;;;;;;20.51;84.39;98419.47;4074404;86;21145;-81
2021/06/30 07:00:07;;;;;;;4.37;2.10;;;;;;;20.84;84.37;98423.35;4073160;86;21033;-82
2021/06/30 07:06:08;;;;;;;6.05;2.27;;;;;;;21.34;84.39;98413.20;4071255;86;21597;-81
2021/06/30 07:12:10;;;;;;;3.22;1.50;;;;;;;21.82;83.08;98419.33;4067262;86;21081;-82
2021/06/30 07:18:15;;;;;;;3.85;1.75;;;;;;;22.44;81.76;98414.19;4074360;86;21707;-83
2021/06/30 07:24:16;;;;;;;2.22;1.52;;;;;;;22.99;81.01;98415.61;4069214;86;21082;-82
2021/06/30 07:30:18;;;;;;;5.20;1.75;;;;;;;23.60;79.26;98412.82;4072213;86;23082;-82
2021/06/30 07:36:19;;;;;;;2.95;1.98;;;;;;;24.08;78.11;98417.91;4071239;85;21103;-81
2021/06/30 07:42:21;;;;;;;6.78;1.98;;;;;;;24.27;76.86;98408.73;4072822;86;22411;-81
2021/06/30 07:48:23;;;;;;;2.92;1.47;;;;;;;24.31;76.29;98414.28;4074188;85;21067;-84
2021/06/30 07:54:25;;;;;;;3.77;1.10;;;;;;;24.57;75.27;98406.10;4072827;86;21663;-82
2021/06/30 08:00:26;;;;;;;6.45;1.32;;;;;;;24.50;73.62;98403.05;4073812;86;21726;-83
2021/06/30 08:06:28;;;;;;;6.05;1.37;;;;;;;24.30;72.95;98402.95;4072295;86;21078;-82
2021/06/30 08:12:29;;;;;;;2.98;1.60;;;;;;;24.21;72.65;98403.66;4071559;86;21063;-83
2021/06/30 08:18:32;;;;;;;4.62;1.52;;;;;;;24.18;71.60;98396.23;4081360;86;21114;-83
2021/06/30 08:24:35;;;;;;;3.80;1.10;;;;;;;24.18;71.58;98385.05;4068487;86;21078;-81
2021/06/30 08:30:36;;;;;;;4.28;1.00;;;;;;;24.18;70.71;98393.44;4074911;86;22159;-81
2021/06/30 08:36:38;;;;;;;3.40;1.40;;;;;;;24.10;70.08;98394.42;4080565;86;21158;-83
2021/06/30 08:42:43;;;;;;;2.72;1.30;;;;;;;24.26;69.88;98390.39;4084355;86;21085;-83
2021/06/30 08:48:45;;;;;;;3.08;1.45;;;;;;;24.41;68.99;98393.98;4076480;86;21549;-83
2021/06/30 08:54:47;;;;;;;6.67;1.27;;;;;;;24.39;68.71;98390.89;4075867;86;21801;-80
2021/06/30 09:00:48;;;;;;;3.80;1.27;;;;;;;24.37;68.60;98387.17;4080481;86;21098;-81
2021/06/30 09:06:50;;;;;;;5.35;1.12;;;;;;;24.38;68.16;98380.31;4076039;86;21107;-82
2021/06/30 09:12:53;;;;;;;2.02;1.00;;;;;;;24.41;68.32;98378.59;4059767;86;21081;-84
2021/06/30 09:18:54;;;;;;;1.85;1.10;;;;;;;24.55;67.27;98380.00;4057722;85;21152;-82
2021/06/30 09:24:57;;;;;;;1.47;1.20;;;;;;;24.73;67.22;98379.03;4085613;85;21102;-83
2021/06/30 09:31:02;;;;;;;5.42;1.20;;;;;;;24.80;66.42;98378.66;4086746;85;21082;-82
2021/06/30 09:37:06;;;;;;;1.82;1.00;;;;;;;24.99;65.94;98375.77;4083546;86;21106;-82
2021/06/30 09:43:28;;;;;;;4.55;1.37;;;;;;;25.31;65.91;98379.55;4080500;85;21512;-82
2021/06/30 09:49:29;;;;;;;4.35;1.22;;;;;;;25.67;65.76;98367.80;4092062;85;21115;-83
2021/06/30 09:55:32;;;;;;;1.05;0.80;;;;;;;25.61;64.09;98338.94;4082666;85;21074;-82
2021/06/30 10:01:33;;;;;;;1.52;1.00;;;;;;;25.83;63.59;98380.64;4091135;86;21075;-82
2021/06/30 10:07:35;;;;;;;2.25;1.00;;;;;;;25.87;62.58;98382.58;4093635;85;21067;-82
2021/06/30 10:13:36;;;;;;;2.47;0.98;;;;;;;25.85;61.78;98375.94;4073379;85;21499;-83
2021/06/30 10:19:41;;;;;;;5.42;1.60;;;;;;;26.13;62.51;98382.03;4077203;86;21036;-83
2021/06/30 10:25:42;;;;;;;2.15;1.22;;;;;;;26.60;62.27;98372.27;4065232;86;21209;-82
2021/06/30 10:31:48;;;;;;;1.27;1.17;;;;;;;26.98;61.12;98366.23;4072685;86;21092;-84
2021/06/30 10:37:54;;;;;;;2.67;1.22;;;;;;;27.29;60.34;98380.88;4096689;84;21679;-82
2021/06/30 10:44:16;;;;;;;1.27;1.12;;;;;;;27.67;60.26;98369.70;4082981;85;21052;-83
2021/06/30 10:50:32;;;;;;;1.80;1.30;;;;;;;27.87;59.25;98365.30;4063316;86;21022;-83
2021/06/30 10:56:33;;;;;;;1.80;1.27;;;;;;;27.98;58.21;98361.15;4080338;86;21121;-83
2021/06/30 11:02:35;;;;;;;3.17;1.20;;;;;;;28.16;57.42;98359.30;4070957;86;21535;-82
2021/06/30 11:09:07;;;;;;;2.92;1.10;;;;;;;28.37;56.91;98366.22;4076857;86;21155;-83
2021/06/30 11:15:10;;;;;;;1.20;1.10;;;;;;;28.83;57.69;98346.83;4072274;86;21154;-83
2021/06/30 11:21:13;;;;;;;1.77;1.37;;;;;;;29.44;56.32;98351.73;4072382;86;21098;-84
2021/06/30 11:27:26;;;;;;;2.15;1.30;;;;;;;29.66;55.76;98346.67;4082378;86;21594;-83
2021/06/30 11:33:27;;;;;;;2.85;1.50;;;;;;;30.06;54.95;98352.38;4068710;86;21545;-83
2021/06/30 11:39:29;;;;;;;2.10;1.40;;;;;;;29.92;55.04;98352.06;4082578;86;21095;-84
2021/06/30 11:45:33;;;;;;;3.67;1.55;;;;;;;30.18;53.75;98343.20;4071502;86;21047;-84
2021/06/30 11:51:37;;;;;;;2.40;1.35;;;;;;;30.40;53.46;98339.60;4072157;85;21087;-83
2021/06/30 11:58:06;;;;;;;4.72;1.70;;;;;;;30.56;52.83;98330.88;4077246;86;21126;-83
2021/06/30 12:04:28;;;;;;;3.75;1.55;;;;;;;30.62;52.20;98326.61;4063961;86;22200;-83
2021/06/30 12:10:32;;;;;;;2.02;1.82;;;;;;;30.47;51.84;98311.45;4096491;84;21136;-84
2021/06/30 12:16:43;;;;;;;3.35;1.72;;;;;;;30.16;52.20;98309.08;4129090;84;21100;-82
2021/06/30 12:22:45;;;;;;;2.67;1.50;;;;;;;29.99;51.94;98305.61;4139169;83;21097;-84
2021/06/30 12:28:46;;;;;;;4.08;1.55;;;;;;;29.64;51.77;98286.56;4139155;84;21662;-84
2021/06/30 12:34:48;;;;;;;2.30;1.50;;;;;;;29.31;51.92;98286.67;4137300;84;21199;-84
2021/06/30 12:41:08;;;;;;;3.55;1.40;;;;;;;28.96;52.00;98292.11;4039319;86;21423;-83
2021/06/30 12:47:12;;;;;;;5.87;1.60;;;;;;;28.52;52.41;98281.67;4027383;86;21079;-85
2021/06/30 12:53:28;;;;;;;2.05;1.02;;;;;;;28.23;52.31;98292.02;4033694;86;21972;-82
2021/06/30 12:59:30;;;;;;;1.50;0.95;;;;;;;27.98;52.16;98288.02;4136522;84;21066;-82
2021/06/30 13:05:31;;;;;;;4.80;0.88;;;;;;;27.52;51.57;98244.16;4132596;84;21091;-82
2021/06/30 13:11:56;;;;;;;3.65;1.10;;;;;;;27.46;52.28;98272.90;4135346;84;21672;-82
2021/06/30 13:18:17;;;;;;;4.87;1.20;;;;;;;27.38;52.38;98264.81;4111145;85;21527;-82
2021/06/30 13:24:35;;;;;;;3.90;1.10;;;;;;;27.24;52.80;98264.34;4122511;85;21088;-82
2021/06/30 13:37:00;;;;;;;1.92;1.20;;;;;;;27.01;53.00;98257.72;4125258;85;21547;-83
2021/06/30 13:43:05;;;;;;;6.05;1.40;;;;;;;26.86;53.72;98259.95;4113062;85;21078;-83
2021/06/30 13:49:08;;;;;;;2.50;1.03;;;;;;;26.78;53.77;98257.47;4119407;85;21103;-81
2021/06/30 13:55:10;;;;;;;5.12;1.60;;;;;;;26.66;53.92;98267.07;4120547;85;21054;-82
2021/06/30 14:01:13;;;;;;;5.12;1.40;;;;;;;26.61;54.16;98287.44;4111185;85;21491;-83
2021/06/30 14:07:15;;;;;;;4.00;1.40;;;;;;;26.61;54.43;98293.05;4112144;85;21111;-82
2021/06/30 14:13:17;;;;;;;3.35;1.12;;;;;;;26.59;54.75;98310.39;4067111;85;21041;-81
2021/06/30 14:19:19;;;;;;;2.87;1.47;;;;;;;26.59;54.52;98326.45;4035999;87;21089;-82
2021/06/30 14:25:21;;;;;;;3.72;1.10;;;;;;;26.58;54.91;98325.68;3878457;90;21808;-84
2021/06/30 14:31:22;;;;;;;2.35;1.47;;;;;;;26.63;54.71;98324.18;3926333;89;21098;-81
2021/06/30 14:37:24;;;;;;;2.72;1.80;;;;;;;26.64;55.14;98339.80;3968919;89;21056;-84
2021/06/30 14:43:27;;;;;;;3.15;1.32;;;;;;;26.61;55.06;98338.72;4065164;87;21060;-83
2021/06/30 14:49:28;;;;;;;2.55;1.47;;;;;;;26.57;55.60;98332.57;4064291;86;21075;-81
2021/06/30 14:55:32;;;;;;;4.75;1.65;;;;;;;26.54;55.55;98332.17;4046613;87;21665;-82
2021/06/30 15:01:33;;;;;;;3.22;1.40;;;;;;;26.54;55.87;98315.95;4051378;86;22005;-81
2021/06/30 15:07:35;;;;;;;1.95;1.40;;;;;;;26.63;55.41;98327.77;4060770;86;21209;-83
2021/06/30 15:13:36;;;;;;;4.37;1.52;;;;;;;26.66;55.47;98321.19;4101727;85;21090;-82
2021/06/30 15:19:37;;;;;;;3.58;1.70;;;;;;;26.64;56.05;98326.52;4125537;85;21116;-80
2021/06/30 15:25:40;;;;;;;4.95;1.67;;;;;;;26.48;56.05;98327.77;4152109;82;60525;-83
2021/06/30 15:31:43;;;;;;;4.80;2.25;;;;;;;26.37;55.24;98324.87;4189068;83;21523;-81
2021/06/30 15:37:44;;;;;;;2.00;1.70;;;;;;;26.27;55.51;98314.45;4184044;83;21072;-82
2021/06/30 15:43:47;;;;;;;3.15;1.80;;;;;;;26.09;54.96;98305.73;4095438;85;21001;-81
2021/06/30 15:49:48;;;;;;;6.80;1.98;;;;;;;25.93;54.88;98295.73;4068772;86;21100;-81
2021/06/30 15:55:52;;;;;;;2.72;1.85;;;;;;;25.76;55.08;98299.00;4188952;83;21549;-82
2021/06/30 16:01:53;;;;;;;4.28;1.90;;;;;;;25.63;55.30;98299.99;4097640;85;21098;-82
2021/06/30 16:07:55;;;;;;;4.70;2.12;;;;;;;25.46;55.73;98299.03;4068671;86;21068;-82
2021/06/30 16:13:57;;;;;;;4.78;2.20;;;;;;;25.34;55.53;98303.71;4151228;83;21125;-82
2021/06/30 16:20:01;;;;;;;2.85;1.75;;;;;;;25.09;56.12;98295.22;4023298;87;21710;-81
2021/06/30 16:26:05;;;;;;;3.25;2.10;;;;;;;25.09;56.12;98295.22;4029734;87;21055;-82
2021/06/30 16:32:07;;;;;;;4.72;2.12;;;;;;;24.97;56.47;98299.88;4143794;84;21722;-81
2021/06/30 16:38:08;;;;;;;4.58;2.02;;;;;;;24.92;56.74;98295.63;4028802;87;21094;-80
2021/06/30 16:44:12;;;;;;;4.03;1.67;;;;;;;24.81;57.19;98300.41;4006369;87;21192;-82
2021/06/30 16:50:13;;;;;;;2.90;1.92;;;;;;;24.71;56.98;98298.22;4008637;87;21038;-81
2021/06/30 16:56:14;;;;;;;4.42;1.87;;;;;;;24.67;56.59;98299.06;4009158;87;21133;-81
2021/06/30 17:02:16;;;;;;;2.60;1.77;;;;;;;24.64;56.60;98311.95;3917621;85;10000440;-80
2021/06/30 17:08:19;;;;;;;6.85;1.90;;;;;;;24.64;56.46;98302.94;4029729;87;21040;-82
2021/06/30 17:14:20;;;;;;;3.62;1.90;;;;;;;24.62;56.73;98301.87;4193452;83;21615;-81
2021/06/30 17:26:31;;;;;;;4.62;2.00;;;;;;;24.29;58.06;98297.16;4616624;77;22908;-80
2021/06/30 17:32:33;;;;;;;8.13;2.35;;;;;;;24.19;58.12;98299.90;4446548;78;21653;-79
2021/06/30 17:38:35;;;;;;;3.70;2.12;;;;;;;24.14;58.42;98294.98;4460884;78;21054;-80
2021/06/30 17:44:38;;;;;;;3.80;2.20;;;;;;;24.13;58.48;98303.23;4450325;78;21030;-79
2021/06/30 17:50:41;;;;;;;3.55;2.20;;;;;;;24.03;59.23;98310.94;4460277;78;21587;-81
2021/06/30 17:56:55;;;;;;;3.00;2.50;;;;;;;23.93;59.68;98326.21;4341227;80;21633;-81
2021/06/30 18:02:57;;;;;;;6.33;2.83;;;;;;;23.72;60.25;98346.91;4173781;81;10000275;-81
2021/06/30 18:08:58;;;;;;;5.08;2.40;;;;;;;23.58;61.00;98351.83;4345421;80;21455;-82
2021/06/30 18:15:02;;;;;;;5.87;2.95;;;;;;;23.53;61.62;98359.47;4303105;80;21010;-82
2021/06/30 18:21:03;;;;;;;3.72;2.45;;;;;;;23.52;62.14;98367.71;4307145;81;21099;-80
2021/06/30 18:27:04;;;;;;;5.42;2.40;;;;;;;23.45;62.29;98360.30;4282450;81;21003;-81
2021/06/30 18:33:06;;;;;;;4.30;2.65;;;;;;;23.30;63.42;98364.45;4303794;81;21486;-81
2021/06/30 18:39:07;;;;;;;4.30;2.33;;;;;;;23.23;63.41;98374.52;4305801;81;21012;-82
2021/06/30 18:45:11;;;;;;;4.45;2.60;;;;;;;23.19;63.69;98408.84;4309321;81;21551;-83
2021/06/30 18:51:13;;;;;;;5.37;3.35;;;;;;;23.09;64.47;98415.09;4315112;81;21090;-81
2021/06/30 18:57:14;;;;;;;5.60;3.20;;;;;;;23.02;64.56;98437.75;4329711;80;21016;-81
2021/06/30 19:03:15;;;;;;;4.12;2.87;;;;;;;22.90;64.77;98448.50;4326755;80;21017;-79
2021/06/30 19:09:17;;;;;;;8.70;3.47;;;;;;;22.83;65.25;98439.69;4329713;80;21113;-81
2021/06/30 19:15:19;;;;;;;8.00;3.37;;;;;;;22.74;65.56;98435.55;4334541;80;21923;-81
2021/06/30 19:21:21;;;;;;;4.17;3.05;;;;;;;22.61;65.76;98451.68;4333875;80;21074;-81
2021/06/30 19:27:23;;;;;;;6.10;3.15;;;;;;;22.43;65.95;98463.61;4300567;81;21521;-79
2021/06/30 19:33:24;;;;;;;5.30;3.72;;;;;;;22.23;66.50;98489.80;4352784;80;21524;-82
2021/06/30 19:39:25;;;;;;;8.25;3.37;;;;;;;22.08;66.40;98490.88;4348383;80;21018;-82
2021/06/30 19:45:28;;;;;;;9.45;3.83;;;;;;;21.99;67.01;98492.27;4318343;81;21099;-81
2021/06/30 19:51:40;;;;;;;7.30;3.90;;;;;;;21.92;67.37;98477.23;4351279;80;21033;-82
2021/06/30 19:57:36;;;;;;;9.57;3.73;;;;;;;21.80;67.53;98462.20;4345275;80;21049;-81
2021/06/30 20:03:37;;;;;;;6.08;3.55;;;;;;;21.66;67.63;98453.02;4346482;80;20982;-81
2021/06/30 20:09:38;;;;;;;6.72;3.33;;;;;;;21.55;67.59;98454.86;4346021;80;22356;-81
2021/06/30 20:15:40;;;;;;;7.42;3.45;;;;;;;21.48;68.06;98469.09;4350851;80;21652;-81
2021/06/30 20:21:41;;;;;;;6.85;3.75;;;;;;;21.46;68.27;98469.37;4349638;80;21045;-81
2021/06/30 20:27:42;;;;;;;10.40;3.40;;;;;;;21.40;68.70;98472.00;4318525;81;21028;-81
2021/06/30 20:33:46;;;;;;;8.23;3.80;;;;;;;21.32;68.85;98469.34;4312939;81;21052;-82
2021/06/30 20:39:47;;;;;;;11.88;3.83;;;;;;;20.98;69.09;98478.47;4328260;81;21551;-81
2021/06/30 20:45:48;;;;;;;5.53;3.33;;;;;;;20.94;69.66;98464.66;4320717;81;21477;-80
2021/06/30 20:51:55;;;;;;;10.53;3.72;;;;;;;20.99;69.77;98466.09;4320843;81;21622;-81
2021/06/30 20:57:56;;;;;;;5.83;4.20;;;;;;;20.99;69.90;98475.23;4325047;81;21040;-81
2021/06/30 21:04:00;;;;;;;6.55;4.00;;;;;;;20.91;69.91;98469.75;4352774;80;21101;-80
2021/06/30 21:10:08;;;;;;;6.42;3.47;;;;;;;20.72;69.82;98470.88;4298926;81;21088;-81
2021/06/30 21:16:10;;;;;;;8.23;4.10;;;;;;;20.55;70.50;98477.88;4331923;80;20979;-82
2021/06/30 21:22:11;;;;;;;6.12;4.15;;;;;;;20.53;70.31;98471.23;4318157;81;21154;-81
2021/06/30 21:28:12;;;;;;;6.53;4.08;;;;;;;20.42;70.50;98482.75;4335743;81;21113;-80
2021/06/30 21:34:14;;;;;;;4.58;3.92;;;;;;;20.34;70.85;98486.23;4336135;80;22103;-81
2021/06/30 21:40:16;;;;;;;7.58;4.90;;;;;;;20.27;71.12;98486.47;4260546;82;21072;-81
2021/06/30 21:46:17;;;;;;;8.28;4.62;;;;;;;20.25;71.23;98485.53;4338350;80;21038;-81
2021/06/30 21:52:23;;;;;;;6.60;4.60;;;;;;;20.26;71.27;98489.09;4260027;82;21084;-82
2021/06/30 21:58:29;;;;;;;7.47;4.67;;;;;;;20.09;71.45;98495.42;4340161;80;21712;-82
2021/06/30 22:04:32;;;;;;;11.30;5.12;;;;;;;20.12;71.58;98493.13;4260486;82;21505;-82
2021/06/30 22:10:34;;;;;;;6.25;5.03;;;;;;;20.06;72.22;98496.32;4338571;80;21081;-81
2021/06/30 22:16:35;;;;;;;8.98;4.62;;;;;;;20.00;71.98;98495.31;4258118;82;21025;-81
2021/06/30 22:22:43;;;;;;;6.70;4.60;;;;;;;19.98;73.03;98482.51;4336209;81;21043;-81
2021/06/30 22:28:44;;;;;;;11.85;4.33;;;;;;;19.98;72.84;98486.05;4352355;81;21094;-81
2021/06/30 22:34:45;;;;;;;8.23;4.28;;;;;;;19.92;73.04;98483.68;4317297;81;21014;-81
2021/06/30 22:40:48;;;;;;;9.90;4.20;;;;;;;19.85;73.31;98488.11;4311844;81;21622;-81
2021/06/30 22:46:49;;;;;;;9.08;3.70;;;;;;;19.91;73.95;98482.14;4322206;81;21635;-81
2021/06/30 22:52:51;;;;;;;6.55;4.22;;;;;;;19.91;74.17;98479.36;4318261;81;21089;-81
2021/06/30 22:58:52;;;;;;;7.33;4.03;;;;;;;19.75;73.81;98485.66;4319181;81;21526;-82
2021/06/30 23:04:54;;;;;;;5.50;3.77;;;;;;;19.56;73.49;98479.78;4328186;81;21117;-81
2021/06/30 23:10:55;;;;;;;5.35;3.75;;;;;;;19.37;74.22;98462.13;4317458;81;21492;-80
2021/06/30 23:16:56;;;;;;;7.33;3.95;;;;;;;19.32;74.42;98475.80;4351678;80;21022;-81
2021/06/30 23:22:58;;;;;;;5.53;3.90;;;;;;;19.31;74.69;98459.75;4320816;81;21115;-81
2021/06/30 23:29:00;;;;;;;11.68;4.30;;;;;;;19.39;75.15;98452.76;4328887;81;21024;-80
2021/06/30 23:35:02;;;;;;;7.12;3.58;;;;;;;19.39;75.44;98451.38;4325585;81;21056;-81
2021/06/30 23:41:04;;;;;;;7.60;3.50;;;;;;;19.12;75.13;98444.09;4332797;81;21032;-81
2021/06/30 23:47:05;;;;;;;10.15;4.30;;;;;;;19.16;75.44;98448.92;4345302;80;22498;-80
2021/06/30 23:53:06;;;;;;;7.08;3.90;;;;;;;19.10;75.12;98436.84;4350558;79;21055;-80
2021/06/30 23:59:08;;;;;;;14.38;4.22;;;;;;;19.05;75.88;98429.06;4348819;80;21547;-81
